sensor_id;sensor_type;location;lat;lon;timestamp;P1;durP1;ratioP1;P2;durP2;ratioP2
3979;SDS011;2004;52.452;13.120;2024-01-07T00:03:51;192.70;;;11.20;;
3979;SDS011;2004;52.452;13.120;2024-01-07T00:12:10;190.07;;;11.17;;
3979;SDS011;2004;52.452;13.120;2024-01-07T00:20:22;186.93;;;10.77;;
3979;SDS011;2004;52.452;13.120;2024-01-07T00:37:23;201.63;;;12.70;;
3979;SDS011;2004;52.452;13.120;2024-01-07T01:02:23;186.73;;;10.73;;
3979;SDS011;2004;52.452;13.120;2024-01-07T01:10:15;188.17;;;10.53;;
3979;SDS011;2004;52.452;13.120;2024-01-07T01:18:19;189.20;;;11.27;;
3979;SDS011;2004;52.452;13.120;2024-01-07T01:26:15;185.20;;;9.80;;
3979;SDS011;2004;52.452;13.120;2024-01-07T01:34:05;186.47;;;9.50;;
3979;SDS011;2004;52.452;13.120;2024-01-07T01:42:06;184.63;;;9.53;;
3979;SDS011;2004;52.452;13.120;2024-01-07T01:58:31;188.70;;;10.37;;
3979;SDS011;2004;52.452;13.120;2024-01-07T02:06:25;186.37;;;9.20;;
3979;SDS011;2004;52.452;13.120;2024-01-07T02:14:42;189.83;;;9.87;;
3979;SDS011;2004;52.452;13.120;2024-01-07T02:22:58;184.33;;;9.97;;
3979;SDS011;2004;52.452;13.120;2024-01-07T02:31:12;181.67;;;8.90;;
3979;SDS011;2004;52.452;13.120;2024-01-07T02:39:18;190.87;;;10.00;;
3979;SDS011;2004;52.452;13.120;2024-01-07T02:47:35;186.37;;;9.60;;
3979;SDS011;2004;52.452;13.120;2024-01-07T02:55:57;186.10;;;9.77;;
3979;SDS011;2004;52.452;13.120;2024-01-07T03:04:59;184.90;;;9.80;;
3979;SDS011;2004;52.452;13.120;2024-01-07T03:13:38;186.00;;;9.30;;
3979;SDS011;2004;52.452;13.120;2024-01-07T03:22:06;184.70;;;9.30;;
3979;SDS011;2004;52.452;13.120;2024-01-07T03:30:25;185.97;;;9.30;;
3979;SDS011;2004;52.452;13.120;2024-01-07T03:38:42;183.90;;;9.17;;
3979;SDS011;2004;52.452;13.120;2024-01-07T03:47:10;183.40;;;9.40;;
3979;SDS011;2004;52.452;13.120;2024-01-07T04:03:45;183.83;;;9.63;;
3979;SDS011;2004;52.452;13.120;2024-01-07T04:12:15;184.97;;;9.50;;
3979;SDS011;2004;52.452;13.120;2024-01-07T04:20:12;185.23;;;9.60;;
3979;SDS011;2004;52.452;13.120;2024-01-07T04:28:56;184.47;;;9.50;;
3979;SDS011;2004;52.452;13.120;2024-01-07T04:37:20;184.77;;;9.43;;
3979;SDS011;2004;52.452;13.120;2024-01-07T04:46:00;183.67;;;9.53;;
3979;SDS011;2004;52.452;13.120;2024-01-07T04:54:18;183.13;;;9.07;;
3979;SDS011;2004;52.452;13.120;2024-01-07T05:03:22;183.07;;;9.67;;
3979;SDS011;2004;52.452;13.120;2024-01-07T05:11:39;187.97;;;9.87;;
3979;SDS011;2004;52.452;13.120;2024-01-07T05:19:42;184.43;;;9.37;;
3979;SDS011;2004;52.452;13.120;2024-01-07T05:27:49;184.67;;;9.43;;
3979;SDS011;2004;52.452;13.120;2024-01-07T05:36:01;185.50;;;9.57;;
3979;SDS011;2004;52.452;13.120;2024-01-07T05:43:54;185.67;;;9.40;;
3979;SDS011;2004;52.452;13.120;2024-01-07T05:52:06;183.90;;;9.33;;
3979;SDS011;2004;52.452;13.120;2024-01-07T06:00:47;185.10;;;9.80;;
3979;SDS011;2004;52.452;13.120;2024-01-07T06:08:47;186.53;;;9.67;;
3979;SDS011;2004;52.452;13.120;2024-01-07T06:25:14;184.60;;;9.57;;
3979;SDS011;2004;52.452;13.120;2024-01-07T06:33:23;184.27;;;9.10;;
3979;SDS011;2004;52.452;13.120;2024-01-07T06:41:37;186.23;;;9.80;;
3979;SDS011;2004;52.452;13.120;2024-01-07T07:06:48;185.37;;;9.57;;
3979;SDS011;2004;52.452;13.120;2024-01-07T07:14:42;189.50;;;10.17;;
3979;SDS011;2004;52.452;13.120;2024-01-07T07:22:58;185.23;;;10.23;;
3979;SDS011;2004;52.452;13.120;2024-01-07T07:30:57;188.37;;;10.27;;
3979;SDS011;2004;52.452;13.120;2024-01-07T07:39:10;187.57;;;9.97;;
3979;SDS011;2004;52.452;13.120;2024-01-07T07:47:58;189.90;;;11.47;;
3979;SDS011;2004;52.452;13.120;2024-01-07T08:14:04;185.93;;;9.50;;
3979;SDS011;2004;52.452;13.120;2024-01-07T08:22:32;185.57;;;9.73;;
3979;SDS011;2004;52.452;13.120;2024-01-07T08:48:24;183.77;;;9.47;;
3979;SDS011;2004;52.452;13.120;2024-01-07T09:04:08;185.83;;;9.90;;
3979;SDS011;2004;52.452;13.120;2024-01-07T09:12:00;186.13;;;9.83;;
3979;SDS011;2004;52.452;13.120;2024-01-07T09:19:53;188.17;;;11.40;;
3979;SDS011;2004;52.452;13.120;2024-01-07T09:27:47;189.27;;;11.00;;
3979;SDS011;2004;52.452;13.120;2024-01-07T09:35:38;186.37;;;10.43;;
3979;SDS011;2004;52.452;13.120;2024-01-07T09:43:36;186.60;;;10.80;;
3979;SDS011;2004;52.452;13.120;2024-01-07T09:51:27;188.37;;;11.30;;
3979;SDS011;2004;52.452;13.120;2024-01-07T09:59:19;189.73;;;11.90;;
3979;SDS011;2004;52.452;13.120;2024-01-07T10:07:10;191.73;;;12.60;;
3979;SDS011;2004;52.452;13.120;2024-01-07T10:15:03;191.90;;;12.40;;
3979;SDS011;2004;52.452;13.120;2024-01-07T10:22:55;191.67;;;12.83;;
3979;SDS011;2004;52.452;13.120;2024-01-07T10:30:49;191.13;;;11.77;;
3979;SDS011;2004;52.452;13.120;2024-01-07T10:38:42;189.90;;;12.27;;
3979;SDS011;2004;52.452;13.120;2024-01-07T10:46:35;194.13;;;12.73;;
3979;SDS011;2004;52.452;13.120;2024-01-07T10:54:28;193.73;;;13.40;;
3979;SDS011;2004;52.452;13.120;2024-01-07T11:02:19;189.07;;;12.60;;
3979;SDS011;2004;52.452;13.120;2024-01-07T11:10:24;190.47;;;12.47;;
3979;SDS011;2004;52.452;13.120;2024-01-07T11:18:23;191.50;;;12.17;;
3979;SDS011;2004;52.452;13.120;2024-01-07T11:26:20;193.47;;;13.23;;
3979;SDS011;2004;52.452;13.120;2024-01-07T11:34:11;190.90;;;12.03;;
3979;SDS011;2004;52.452;13.120;2024-01-07T11:42:37;190.90;;;12.60;;
3979;SDS011;2004;52.452;13.120;2024-01-07T11:50:28;189.83;;;12.57;;
3979;SDS011;2004;52.452;13.120;2024-01-07T11:58:20;190.37;;;12.10;;
3979;SDS011;2004;52.452;13.120;2024-01-07T12:06:11;191.13;;;12.13;;
3979;SDS011;2004;52.452;13.120;2024-01-07T12:14:04;202.47;;;19.33;;
3979;SDS011;2004;52.452;13.120;2024-01-07T12:22:05;189.57;;;10.70;;
3979;SDS011;2004;52.452;13.120;2024-01-07T12:29:59;188.33;;;10.73;;
3979;SDS011;2004;52.452;13.120;2024-01-07T12:37:51;194.90;;;10.90;;
3979;SDS011;2004;52.452;13.120;2024-01-07T12:45:53;187.87;;;10.60;;
3979;SDS011;2004;52.452;13.120;2024-01-07T12:53:45;189.80;;;11.17;;
3979;SDS011;2004;52.452;13.120;2024-01-07T13:01:36;200.67;;;15.57;;
3979;SDS011;2004;52.452;13.120;2024-01-07T13:09:29;188.23;;;11.03;;
3979;SDS011;2004;52.452;13.120;2024-01-07T13:17:19;187.67;;;10.57;;
3979;SDS011;2004;52.452;13.120;2024-01-07T13:25:12;190.43;;;11.10;;
3979;SDS011;2004;52.452;13.120;2024-01-07T13:33:03;186.77;;;10.47;;
3979;SDS011;2004;52.452;13.120;2024-01-07T13:40:54;190.20;;;11.07;;
3979;SDS011;2004;52.452;13.120;2024-01-07T13:48:44;188.43;;;10.67;;
3979;SDS011;2004;52.452;13.120;2024-01-07T13:56:35;195.70;;;10.50;;
3979;SDS011;2004;52.452;13.120;2024-01-07T14:04:28;187.90;;;10.73;;
3979;SDS011;2004;52.452;13.120;2024-01-07T14:12:20;188.63;;;10.53;;
3979;SDS011;2004;52.452;13.120;2024-01-07T14:20:10;187.53;;;10.30;;
3979;SDS011;2004;52.452;13.120;2024-01-07T14:28:01;189.47;;;10.50;;
3979;SDS011;2004;52.452;13.120;2024-01-07T14:36:02;186.97;;;9.90;;
3979;SDS011;2004;52.452;13.120;2024-01-07T14:43:53;186.27;;;10.13;;
3979;SDS011;2004;52.452;13.120;2024-01-07T14:51:46;190.17;;;10.90;;
3979;SDS011;2004;52.452;13.120;2024-01-07T14:59:37;188.97;;;11.60;;
3979;SDS011;2004;52.452;13.120;2024-01-07T15:07:27;189.33;;;10.30;;
3979;SDS011;2004;52.452;13.120;2024-01-07T15:15:18;188.67;;;10.43;;
3979;SDS011;2004;52.452;13.120;2024-01-07T15:23:10;188.87;;;10.60;;
3979;SDS011;2004;52.452;13.120;2024-01-07T15:31:01;188.53;;;10.20;;
3979;SDS011;2004;52.452;13.120;2024-01-07T15:38:51;190.83;;;10.87;;
3979;SDS011;2004;52.452;13.120;2024-01-07T15:46:42;194.50;;;11.50;;
3979;SDS011;2004;52.452;13.120;2024-01-07T15:54:32;193.23;;;11.40;;
3979;SDS011;2004;52.452;13.120;2024-01-07T16:02:23;190.33;;;11.27;;
3979;SDS011;2004;52.452;13.120;2024-01-07T16:10:14;194.27;;;12.80;;
3979;SDS011;2004;52.452;13.120;2024-01-07T16:18:04;191.83;;;12.70;;
3979;SDS011;2004;52.452;13.120;2024-01-07T16:25:55;189.27;;;11.60;;
3979;SDS011;2004;52.452;13.120;2024-01-07T16:33:46;195.90;;;11.50;;
3979;SDS011;2004;52.452;13.120;2024-01-07T16:41:37;192.70;;;12.80;;
3979;SDS011;2004;52.452;13.120;2024-01-07T16:49:27;191.33;;;12.10;;
3979;SDS011;2004;52.452;13.120;2024-01-07T16:57:18;193.97;;;13.73;;
3979;SDS011;2004;52.452;13.120;2024-01-07T17:05:09;193.20;;;13.23;;
3979;SDS011;2004;52.452;13.120;2024-01-07T17:12:59;188.97;;;11.60;;
3979;SDS011;2004;52.452;13.120;2024-01-07T17:20:50;191.27;;;11.80;;
3979;SDS011;2004;52.452;13.120;2024-01-07T17:28:40;192.00;;;13.50;;
3979;SDS011;2004;52.452;13.120;2024-01-07T17:36:31;196.53;;;13.00;;
3979;SDS011;2004;52.452;13.120;2024-01-07T17:44:24;189.30;;;12.80;;
3979;SDS011;2004;52.452;13.120;2024-01-07T17:52:15;190.33;;;12.40;;
3979;SDS011;2004;52.452;13.120;2024-01-07T18:00:06;194.37;;;13.63;;
3979;SDS011;2004;52.452;13.120;2024-01-07T18:07:59;195.17;;;14.07;;
3979;SDS011;2004;52.452;13.120;2024-01-07T18:15:49;192.00;;;13.27;;
3979;SDS011;2004;52.452;13.120;2024-01-07T18:23:40;192.77;;;13.50;;
3979;SDS011;2004;52.452;13.120;2024-01-07T18:31:31;193.23;;;14.03;;
3979;SDS011;2004;52.452;13.120;2024-01-07T18:39:22;199.57;;;15.77;;
3979;SDS011;2004;52.452;13.120;2024-01-07T18:47:13;191.17;;;12.83;;
3979;SDS011;2004;52.452;13.120;2024-01-07T18:55:04;193.43;;;13.93;;
3979;SDS011;2004;52.452;13.120;2024-01-07T19:02:56;192.63;;;13.60;;
3979;SDS011;2004;52.452;13.120;2024-01-07T19:10:47;192.43;;;13.30;;
3979;SDS011;2004;52.452;13.120;2024-01-07T19:18:37;190.47;;;12.80;;
3979;SDS011;2004;52.452;13.120;2024-01-07T19:26:28;190.77;;;11.77;;
3979;SDS011;2004;52.452;13.120;2024-01-07T19:34:19;189.10;;;11.73;;
3979;SDS011;2004;52.452;13.120;2024-01-07T19:42:10;189.33;;;10.60;;
3979;SDS011;2004;52.452;13.120;2024-01-07T19:50:03;191.07;;;11.80;;
3979;SDS011;2004;52.452;13.120;2024-01-07T19:57:54;189.37;;;12.13;;
3979;SDS011;2004;52.452;13.120;2024-01-07T20:05:45;187.07;;;11.43;;
3979;SDS011;2004;52.452;13.120;2024-01-07T20:13:41;188.57;;;11.80;;
3979;SDS011;2004;52.452;13.120;2024-01-07T20:22:07;189.30;;;12.07;;
3979;SDS011;2004;52.452;13.120;2024-01-07T20:30:15;192.67;;;11.77;;
3979;SDS011;2004;52.452;13.120;2024-01-07T20:38:18;186.77;;;10.30;;
3979;SDS011;2004;52.452;13.120;2024-01-07T20:46:52;189.93;;;12.60;;
3979;SDS011;2004;52.452;13.120;2024-01-07T21:03:03;189.77;;;12.47;;
3979;SDS011;2004;52.452;13.120;2024-01-07T21:28:46;188.27;;;12.53;;
3979;SDS011;2004;52.452;13.120;2024-01-07T21:37:21;192.07;;;12.40;;
3979;SDS011;2004;52.452;13.120;2024-01-07T21:45:25;184.77;;;11.00;;
3979;SDS011;2004;52.452;13.120;2024-01-07T21:54:05;189.20;;;12.90;;
3979;SDS011;2004;52.452;13.120;2024-01-07T22:02:06;190.27;;;12.30;;
3979;SDS011;2004;52.452;13.120;2024-01-07T22:10:27;186.33;;;11.93;;
3979;SDS011;2004;52.452;13.120;2024-01-07T22:18:18;195.87;;;12.00;;
3979;SDS011;2004;52.452;13.120;2024-01-07T22:26:09;184.63;;;10.80;;
3979;SDS011;2004;52.452;13.120;2024-01-07T22:34:00;193.10;;;12.73;;
3979;SDS011;2004;52.452;13.120;2024-01-07T22:41:52;192.90;;;13.80;;
3979;SDS011;2004;52.452;13.120;2024-01-07T22:49:43;190.00;;;13.37;;
3979;SDS011;2004;52.452;13.120;2024-01-07T22:57:33;190.77;;;13.23;;
3979;SDS011;2004;52.452;13.120;2024-01-07T23:05:25;193.33;;;14.37;;
3979;SDS011;2004;52.452;13.120;2024-01-07T23:13:15;189.33;;;13.27;;
3979;SDS011;2004;52.452;13.120;2024-01-07T23:21:09;191.50;;;13.40;;
3979;SDS011;2004;52.452;13.120;2024-01-07T23:29:00;192.77;;;14.50;;
3979;SDS011;2004;52.452;13.120;2024-01-07T23:36:50;191.67;;;12.90;;
3979;SDS011;2004;52.452;13.120;2024-01-07T23:44:41;202.27;;;14.03;;
3979;SDS011;2004;52.452;13.120;2024-01-07T23:52:32;194.80;;;14.00;;
